Almaty Airport
UAAA : now visible

Airfield :











YOU CAN JOIN US ON...

 
LOGIN :

Register | Disclaimer

   EN    FR    IT 

 









Legend :    VFR   Marginal VFR   IFR   Intensive IFR   Very Intensive IFR
Visi :
Ceiling :
>= 8 km
>= 3000ft
5 to 8 km
1000 to 3000 ft
1500m to 5 km
500 to 1000 ft
800 to 1500m
200 to 500 ft
< 800m
< 200 ft
Symbols :   Thunderstorms  Fog  Heavy snow  Heavy precipitations  Wind > 20 kt






- Airport Elevation : 2234 ft
- IATA code : ALA


UAAA - Almaty

CURRENT METAR :
  • 062200Z 15001MPS 9999 FEW100 07/05 Q1014 R05R/CLRD65 NOSIG

EXPIRED METARs :
  • 062130Z 14002MPS 9999 FEW100 07/05 Q1015 R05R/CLRD65 NOSIG
  • 062100Z 17002MPS 9999 FEW100 07/06 Q1015 R05R/CLRD65 NOSIG
  • 062030Z 23002MPS 9999 SCT100 07/05 Q1015 R05R/CLRD65 NOSIG
  • 062000Z 00000MPS 5000 BR FU SCT100 08/06 Q1016 R05R/CLRD65 NOSIG
  • 061930Z 17002MPS 5000 BR FU SCT100 08/06 Q1016 R05R/CLRD65 NOSIG

TAF COR TAF UAAA
Valid from the 06 at 18:00 until the 07 at 18:00 UTC


061700Z 0618/0718 20003MPS 9999 SCT050CB BKN100 TX20/0708Z TN05/0701Z
TEMPO 0618/0702 16003MPS 3100 BR FU
TEMPO 0706/0712 26003G08MPS
BECMG 0713/0714 5000 BR FU
TEMPO 0714/0718 24005G10MPS BKN030CB OVC100



MET'MAP, your aeronautical weather chart ! - Copyright ORBIFLY December 2007 - Disclaimer

ORBIFLY MET'MAP TEAM :

Programming & Development : Alexandra Zaïnal
Concept & original design : Baudouin d'Aumeries
Assistance for programming : Marc-Olivier Méhu
Technical & hardware support : Manuel Goepfert

Contact : metmap@orbifly.com




SOURCES & CREDITS :

   NOAA       Earth
Advisory